Time;durP1;ratioP1;P1;durP2;ratioP2;P2;SDS_P1;SDS_P2;PMS_P1;PMS_P2;Temp;Humidity;BMP_temperature;BMP_pressure;BME280_temperature;BME280_humidity;BME280_pressure;Samples;Min_cycle;Max_cycle;Signal;HPM_P1;HPM_P2
2023/12/03 00:02:02;;;;;;;5.40;3.28;;;4.10;90.60;;;;;;4967191;28;20214;-45
2023/12/03 00:04:30;;;;;;;3.92;2.53;;;4.20;90.70;;;;;;4959978;28;20222;-46
2023/12/03 00:06:58;;;;;;;4.68;3.10;;;4.10;90.60;;;;;;4967114;28;20211;-45
2023/12/03 00:09:26;;;;;;;4.05;2.85;;;4.20;90.70;;;;;;4964922;28;20220;-44
2023/12/03 00:11:55;;;;;;;5.10;3.50;;;4.10;90.70;;;;;;4964453;28;20550;-45
2023/12/03 00:14:24;;;;;;;4.85;3.47;;;4.10;90.70;;;;;;4964490;28;20220;-45
2023/12/03 00:16:52;;;;;;;6.40;3.72;;;4.10;90.70;;;;;;4967429;28;20188;-45
2023/12/03 00:19:19;;;;;;;8.98;4.32;;;4.10;90.70;;;;;;4983142;28;20574;-46
2023/12/03 00:21:48;;;;;;;5.32;3.65;;;4.10;90.60;;;;;;4968444;28;20195;-46
2023/12/03 00:24:16;;;;;;;4.55;3.00;;;4.10;90.60;;;;;;4967517;28;20234;-44
2023/12/03 00:26:44;;;;;;;5.95;3.33;;;4.10;90.60;;;;;;4968105;28;20200;-45
2023/12/03 00:29:16;;;;;;;3.85;2.90;;;4.10;90.60;;;;;;4966095;28;20229;-43
2023/12/03 00:31:44;;;;;;;4.53;3.17;;;4.10;90.70;;;;;;4965918;28;20745;-46
2023/12/03 00:34:12;;;;;;;5.70;3.30;;;4.10;90.70;;;;;;4967313;28;20278;-46
2023/12/03 00:36:40;;;;;;;6.25;2.90;;;4.20;90.70;;;;;;4969624;28;20196;-46
2023/12/03 00:39:08;;;;;;;6.47;4.68;;;4.10;90.70;;;;;;4966236;28;20230;-46
2023/12/03 00:41:37;;;;;;;6.05;4.18;;;4.10;90.50;;;;;;4963938;28;20542;-44
2023/12/03 00:44:05;;;;;;;6.43;3.35;;;4.10;90.60;;;;;;4968420;28;20218;-44
2023/12/03 00:46:34;;;;;;;3.28;2.50;;;4.10;90.70;;;;;;4969264;28;20266;-45
2023/12/03 00:49:02;;;;;;;3.67;2.70;;;4.10;90.70;;;;;;4966372;28;20640;-48
2023/12/03 00:51:30;;;;;;;6.00;3.10;;;4.10;90.70;;;;;;4969350;28;20245;-45
2023/12/03 00:53:58;;;;;;;3.78;2.40;;;4.10;90.60;;;;;;4969567;28;20229;-45
2023/12/03 00:56:26;;;;;;;4.10;2.97;;;4.10;90.70;;;;;;4962259;28;20227;-44
2023/12/03 00:58:55;;;;;;;5.55;3.00;;;4.10;90.70;;;;;;4967431;28;20334;-44
2023/12/03 01:01:23;;;;;;;3.95;2.70;;;4.10;90.60;;;;;;4968308;28;20199;-45
2023/12/03 01:03:52;;;;;;;4.47;3.15;;;4.10;90.70;;;;;;4967730;28;20301;-46
2023/12/03 01:06:21;;;;;;;4.05;2.83;;;4.10;90.70;;;;;;4965941;28;20188;-44
2023/12/03 01:08:49;;;;;;;5.60;3.15;;;4.10;90.70;;;;;;4968156;28;20219;-44
2023/12/03 01:11:17;;;;;;;4.75;3.05;;;4.10;90.70;;;;;;4962988;28;20254;-45
2023/12/03 01:14:03;;;;;;;5.25;3.53;;;4.10;90.60;;;;;;4966722;28;20223;-45
2023/12/03 01:16:32;;;;;;;4.30;2.90;;;4.10;90.70;;;;;;4968748;28;20191;-45
2023/12/03 01:19:02;;;;;;;5.25;3.47;;;4.10;90.70;;;;;;4963982;28;20227;-45
2023/12/03 01:21:30;;;;;;;4.00;3.30;;;4.10;90.60;;;;;;4969627;28;20215;-46
2023/12/03 01:23:58;;;;;;;3.88;3.00;;;4.10;90.60;;;;;;4967835;28;20231;-45
2023/12/03 01:26:26;;;;;;;4.25;3.08;;;4.10;90.60;;;;;;4962335;28;20197;-46
2023/12/03 01:28:56;;;;;;;3.88;2.97;;;4.10;90.70;;;;;;4969539;28;20230;-46
2023/12/03 01:31:24;;;;;;;3.65;2.53;;;4.10;90.70;;;;;;4966921;28;20705;-44
2023/12/03 01:33:51;;;;;;;4.10;3.22;;;4.10;90.70;;;;;;4964623;28;20654;-43
2023/12/03 01:36:21;;;;;;;4.05;3.00;;;4.10;90.70;;;;;;4962446;28;20574;-45
2023/12/03 01:38:49;;;;;;;4.22;2.90;;;4.10;90.60;;;;;;4969297;28;20239;-43
2023/12/03 01:41:17;;;;;;;4.35;3.53;;;4.10;90.80;;;;;;4962571;28;20992;-44
2023/12/03 01:43:49;;;;;;;4.13;3.45;;;4.10;90.60;;;;;;4970399;28;20223;-46
2023/12/03 01:46:20;;;;;;;4.53;3.58;;;4.10;90.60;;;;;;4971699;28;20246;-45
2023/12/03 01:48:49;;;;;;;5.35;3.90;;;4.10;90.70;;;;;;4971367;28;20231;-44
2023/12/03 01:51:18;;;;;;;3.83;2.67;;;4.10;90.70;;;;;;4968141;28;20795;-44
2023/12/03 01:53:49;;;;;;;3.10;2.60;;;4.10;90.70;;;;;;4970910;28;20224;-44
2023/12/03 01:56:17;;;;;;;3.67;3.30;;;4.10;90.70;;;;;;4968418;28;20188;-47
2023/12/03 01:58:46;;;;;;;2.88;2.13;;;4.10;90.70;;;;;;4970003;28;20219;-45
2023/12/03 02:01:14;;;;;;;3.20;2.60;;;4.10;90.70;;;;;;4969482;28;20294;-45
2023/12/03 02:03:42;;;;;;;4.30;2.90;;;4.10;90.70;;;;;;4967890;28;20740;-44
2023/12/03 02:06:11;;;;;;;4.53;2.80;;;4.10;90.70;;;;;;4968928;28;20196;-45
2023/12/03 02:08:39;;;;;;;5.75;2.63;;;4.10;90.70;;;;;;4970099;28;20780;-43
2023/12/03 02:11:09;;;;;;;3.08;2.15;;;4.10;90.70;;;;;;4967198;28;20226;-43
2023/12/03 02:13:38;;;;;;;4.47;2.85;;;4.10;90.70;;;;;;4968368;28;20302;-44
2023/12/03 02:16:07;;;;;;;5.20;2.90;;;4.10;90.70;;;;;;4970329;28;20202;-43
2023/12/03 02:18:36;;;;;;;4.70;2.78;;;4.10;90.70;;;;;;4970411;28;20302;-46
2023/12/03 02:21:05;;;;;;;4.47;2.95;;;4.10;90.70;;;;;;4966445;28;20275;-44
2023/12/03 02:23:34;;;;;;;4.28;2.63;;;4.10;90.60;;;;;;4973579;28;20223;-47
2023/12/03 02:26:02;;;;;;;2.75;2.40;;;4.10;90.60;;;;;;4981886;28;20754;-46
2023/12/03 02:28:30;;;;;;;3.65;2.65;;;4.10;90.70;;;;;;4971911;28;20295;-46
2023/12/03 02:31:00;;;;;;;3.17;2.50;;;4.10;90.70;;;;;;4971110;28;20298;-45
2023/12/03 02:33:28;;;;;;;3.70;2.92;;;4.10;90.70;;;;;;4971389;28;21243;-45
2023/12/03 02:36:01;;;;;;;3.28;2.70;;;4.10;90.70;;;;;;4966621;28;20697;-44
2023/12/03 02:38:32;;;;;;;3.88;2.45;;;4.10;90.70;;;;;;4971354;28;20227;-44
2023/12/03 02:41:01;;;;;;;3.00;2.42;;;4.10;90.70;;;;;;4966662;28;20227;-47
2023/12/03 02:43:29;;;;;;;2.80;2.08;;;4.10;90.70;;;;;;4971783;28;20274;-43
2023/12/03 02:45:57;;;;;;;3.20;2.55;;;4.10;90.70;;;;;;4972201;28;20577;-44
2023/12/03 02:48:27;;;;;;;3.05;1.92;;;4.10;90.70;;;;;;4971033;28;20636;-43
2023/12/03 02:50:56;;;;;;;3.05;2.25;;;4.10;90.70;;;;;;4964073;28;20224;-45
2023/12/03 02:53:24;;;;;;;4.35;2.60;;;4.10;90.70;;;;;;4969994;28;20650;-44
2023/12/03 02:55:52;;;;;;;4.40;3.15;;;4.10;90.70;;;;;;4967413;28;20244;-45
2023/12/03 02:58:22;;;;;;;3.10;2.42;;;4.10;90.70;;;;;;4969485;28;20593;-46
2023/12/03 03:00:50;;;;;;;3.80;2.63;;;4.00;90.60;;;;;;4970824;28;20188;-47
2023/12/03 03:03:18;;;;;;;3.47;2.72;;;4.00;90.70;;;;;;4967658;28;20239;-46
2023/12/03 03:05:46;;;;;;;3.90;3.05;;;4.10;90.70;;;;;;4966722;28;20203;-45
2023/12/03 03:08:14;;;;;;;3.70;2.45;;;4.00;90.70;;;;;;4985879;28;20237;-46
2023/12/03 03:10:42;;;;;;;4.10;3.20;;;4.00;90.70;;;;;;4966888;28;20420;-47
2023/12/03 03:13:10;;;;;;;3.45;2.22;;;4.00;90.70;;;;;;4985624;28;20229;-47
2023/12/03 03:15:42;;;;;;;2.90;2.20;;;4.00;90.70;;;;;;4970305;28;20286;-44
2023/12/03 03:18:10;;;;;;;4.00;2.60;;;4.00;90.70;;;;;;4969617;28;20251;-44
2023/12/03 03:20:39;;;;;;;3.75;2.40;;;4.00;90.60;;;;;;4964773;28;20200;-45
2023/12/03 03:23:07;;;;;;;3.17;2.83;;;4.10;90.70;;;;;;4969344;28;20261;-45
2023/12/03 03:25:35;;;;;;;3.13;2.53;;;4.00;90.70;;;;;;4963895;28;20187;-45
2023/12/03 03:28:03;;;;;;;3.20;2.25;;;4.00;90.60;;;;;;4968845;28;20226;-46
2023/12/03 03:30:31;;;;;;;3.40;2.17;;;4.00;90.70;;;;;;4969938;28;20222;-45
2023/12/03 03:33:00;;;;;;;3.72;2.53;;;4.10;90.70;;;;;;4970498;28;20199;-47
2023/12/03 03:35:28;;;;;;;3.22;2.08;;;4.10;90.70;;;;;;4962157;28;20536;-45
2023/12/03 03:37:56;;;;;;;4.22;2.85;;;4.00;90.70;;;;;;4968320;28;20709;-43
2023/12/03 03:40:27;;;;;;;3.13;2.20;;;4.00;90.70;;;;;;4968971;28;20199;-49
2023/12/03 03:42:55;;;;;;;3.35;2.75;;;4.00;90.70;;;;;;4968747;28;20191;-43
2023/12/03 03:45:23;;;;;;;3.45;2.53;;;4.00;90.70;;;;;;4969833;28;20215;-44
2023/12/03 03:47:51;;;;;;;2.88;2.30;;;4.00;90.60;;;;;;4969119;28;20725;-44
2023/12/03 03:50:21;;;;;;;2.97;1.80;;;4.10;90.70;;;;;;4966768;28;20903;-43
2023/12/03 03:52:49;;;;;;;3.55;2.30;;;4.10;90.70;;;;;;4970212;28;20689;-47
2023/12/03 03:55:17;;;;;;;3.40;2.45;;;4.00;91.10;;;;;;4970872;28;20266;-45
2023/12/03 03:57:45;;;;;;;2.70;2.40;;;4.00;90.60;;;;;;4966343;28;20310;-46
2023/12/03 04:00:14;;;;;;;2.47;1.95;;;4.00;90.60;;;;;;4969473;28;20261;-47
2023/12/03 04:02:42;;;;;;;3.45;1.95;;;4.00;90.60;;;;;;4969454;28;20565;-44
2023/12/03 04:05:10;;;;;;;3.58;2.40;;;4.00;90.60;;;;;;4967389;28;20641;-45
2023/12/03 04:07:39;;;;;;;3.10;2.22;;;4.00;90.60;;;;;;4969070;28;20719;-44
2023/12/03 04:10:10;;;;;;;3.55;2.70;;;4.00;90.60;;;;;;4967906;28;20367;-45
2023/12/03 04:12:38;;;;;;;3.30;2.10;;;4.00;90.60;;;;;;4962399;28;20219;-45
2023/12/03 04:15:07;;;;;;;2.95;2.35;;;4.00;90.70;;;;;;4967814;28;20225;-46
2023/12/03 04:17:35;;;;;;;2.95;2.10;;;4.00;90.60;;;;;;4976566;28;20241;-44
2023/12/03 04:20:04;;;;;;;2.90;2.20;;;4.00;90.70;;;;;;4962761;28;20225;-44
2023/12/03 04:22:33;;;;;;;2.05;1.85;;;4.00;90.70;;;;;;4968902;28;20195;-43
2023/12/03 04:25:02;;;;;;;4.32;2.25;;;4.00;90.60;;;;;;4967515;28;20258;-45
2023/12/03 04:27:30;;;;;;;2.83;1.90;;;4.00;90.60;;;;;;4965727;28;20459;-44
2023/12/03 04:29:58;;;;;;;2.47;1.85;;;4.00;90.60;;;;;;4968627;28;20564;-44
2023/12/03 04:32:26;;;;;;;2.55;1.90;;;4.00;90.60;;;;;;4967413;28;20682;-44
2023/12/03 04:34:54;;;;;;;2.35;2.10;;;4.00;90.70;;;;;;4968019;28;20227;-44
2023/12/03 04:37:22;;;;;;;3.20;2.10;;;4.00;90.60;;;;;;4967806;28;20548;-43
2023/12/03 04:39:51;;;;;;;2.60;2.00;;;4.00;90.60;;;;;;4970157;28;20222;-45
2023/12/03 04:42:20;;;;;;;2.97;2.13;;;4.00;90.60;;;;;;4962391;28;20204;-45
2023/12/03 04:44:48;;;;;;;3.28;1.80;;;4.00;90.60;;;;;;4970099;28;20619;-43
2023/12/03 04:47:16;;;;;;;3.15;1.85;;;4.00;90.60;;;;;;4968159;28;20191;-44
2023/12/03 04:49:44;;;;;;;3.05;2.17;;;4.00;90.60;;;;;;4966185;28;20219;-45
2023/12/03 04:52:12;;;;;;;2.90;1.60;;;4.00;90.60;;;;;;4967154;28;20634;-45
2023/12/03 04:54:40;;;;;;;3.00;1.63;;;4.00;90.70;;;;;;4969048;28;20273;-45
2023/12/03 04:57:08;;;;;;;3.30;1.75;;;4.00;90.60;;;;;;4964244;28;20183;-44
2023/12/03 04:59:37;;;;;;;3.05;1.85;;;4.00;90.70;;;;;;4970198;28;20310;-44
2023/12/03 05:02:05;;;;;;;2.75;1.95;;;4.00;90.60;;;;;;4968216;28;20254;-44
2023/12/03 05:04:33;;;;;;;2.50;1.90;;;4.00;90.60;;;;;;4967498;28;20218;-44
2023/12/03 05:07:01;;;;;;;2.38;2.05;;;4.00;90.60;;;;;;4966100;28;20199;-44
2023/12/03 05:09:30;;;;;;;2.67;1.95;;;4.00;90.60;;;;;;4966735;28;20207;-44
2023/12/03 05:11:58;;;;;;;3.33;2.10;;;4.00;90.60;;;;;;4964457;28;20227;-44
2023/12/03 05:14:26;;;;;;;2.95;2.10;;;4.00;90.60;;;;;;4967570;28;20240;-44
2023/12/03 05:16:55;;;;;;;2.53;1.95;;;4.00;90.60;;;;;;4968290;28;20207;-45
2023/12/03 05:19:23;;;;;;;2.45;1.80;;;4.00;90.60;;;;;;4969716;28;20766;-44
2023/12/03 05:21:51;;;;;;;2.60;1.80;;;4.00;90.60;;;;;;4971947;28;20198;-45
2023/12/03 05:24:19;;;;;;;3.20;1.90;;;4.00;90.60;;;;;;4971499;28;20597;-46
2023/12/03 05:26:47;;;;;;;2.67;2.15;;;4.00;90.60;;;;;;4966401;28;20192;-45
2023/12/03 05:29:15;;;;;;;3.25;1.90;;;4.00;90.60;;;;;;4972195;28;20219;-44
2023/12/03 05:31:45;;;;;;;2.97;2.05;;;3.90;90.60;;;;;;4972945;28;20780;-43
2023/12/03 05:34:15;;;;;;;2.85;1.83;;;4.00;90.60;;;;;;4962563;28;20254;-44
2023/12/03 05:36:43;;;;;;;2.35;1.70;;;4.00;90.60;;;;;;4972169;28;20211;-44
2023/12/03 05:39:11;;;;;;;2.45;1.52;;;4.00;90.60;;;;;;4971690;28;20290;-44
2023/12/03 05:41:40;;;;;;;2.35;1.90;;;3.90;90.60;;;;;;4966123;28;20195;-45
2023/12/03 05:44:08;;;;;;;2.40;1.95;;;4.00;90.60;;;;;;4971370;28;20301;-44
2023/12/03 05:46:40;;;;;;;3.15;1.90;;;4.00;90.60;;;;;;4966233;28;20222;-44
2023/12/03 05:49:09;;;;;;;2.45;1.65;;;4.00;90.60;;;;;;4971904;28;20273;-49
2023/12/03 05:51:43;;;;;;;2.60;1.52;;;3.90;90.60;;;;;;4971328;28;20353;-43
2023/12/03 05:54:11;;;;;;;3.05;2.30;;;4.00;90.60;;;;;;4987150;28;20652;-44
2023/12/03 05:56:39;;;;;;;2.20;1.80;;;4.00;90.60;;;;;;4968089;28;20238;-44
2023/12/03 05:59:07;;;;;;;2.42;2.00;;;3.90;90.60;;;;;;4972623;28;20224;-45
2023/12/03 06:01:36;;;;;;;3.10;2.00;;;3.90;90.60;;;;;;4968558;28;20246;-44
2023/12/03 06:04:07;;;;;;;3.05;2.17;;;3.90;90.60;;;;;;4966990;28;20227;-44
2023/12/03 06:06:36;;;;;;;3.00;2.00;;;4.00;90.60;;;;;;4968272;28;20191;-46
2023/12/03 06:09:05;;;;;;;2.92;2.10;;;3.90;90.60;;;;;;4969528;28;20310;-45
2023/12/03 06:11:34;;;;;;;2.55;2.00;;;3.90;90.60;;;;;;4964133;28;20203;-44
2023/12/03 06:14:02;;;;;;;2.67;1.90;;;3.90;90.60;;;;;;4969767;28;20724;-44
2023/12/03 06:16:30;;;;;;;3.13;1.90;;;3.90;90.60;;;;;;4970198;28;20202;-45
2023/12/03 06:18:59;;;;;;;3.38;2.15;;;3.90;90.50;;;;;;4968681;28;20255;-49
2023/12/03 06:21:27;;;;;;;2.75;1.98;;;3.90;90.50;;;;;;4964039;28;20235;-43
2023/12/03 06:23:56;;;;;;;3.88;2.30;;;3.90;90.60;;;;;;4972099;28;20231;-44
2023/12/03 06:26:25;;;;;;;2.55;2.08;;;3.90;90.60;;;;;;4966041;28;20223;-45
2023/12/03 06:28:53;;;;;;;2.83;2.08;;;3.90;90.60;;;;;;4970953;28;20227;-44
2023/12/03 06:31:21;;;;;;;2.80;2.05;;;3.90;90.50;;;;;;4970921;28;20203;-44
2023/12/03 06:33:49;;;;;;;3.95;2.10;;;3.90;90.50;;;;;;4971180;28;20234;-43
2023/12/03 06:36:17;;;;;;;2.00;1.80;;;3.90;90.60;;;;;;4969042;28;20199;-47
2023/12/03 06:38:45;;;;;;;2.70;1.95;;;3.90;90.50;;;;;;4972314;28;20683;-46
2023/12/03 06:41:14;;;;;;;3.45;2.38;;;3.90;90.50;;;;;;4964790;28;20196;-46
2023/12/03 06:43:44;;;;;;;2.53;2.00;;;3.90;90.50;;;;;;4971650;28;20227;-47
2023/12/03 06:46:12;;;;;;;3.22;2.20;;;3.90;90.60;;;;;;4970316;28;20264;-46
2023/12/03 06:48:42;;;;;;;3.00;1.95;;;3.90;90.50;;;;;;4970479;28;20270;-46
2023/12/03 06:51:10;;;;;;;4.20;2.33;;;3.90;90.50;;;;;;4968753;28;20665;-47
2023/12/03 06:53:38;;;;;;;2.90;1.90;;;3.90;90.50;;;;;;4971338;28;20238;-45
2023/12/03 06:56:10;;;;;;;2.53;1.92;;;3.90;90.50;;;;;;4966030;28;20226;-44
2023/12/03 06:58:38;;;;;;;3.38;2.40;;;3.90;90.50;;;;;;4965425;28;20254;-46
2023/12/03 07:01:13;;;;;;;2.33;1.70;;;3.80;90.50;;;;;;4970321;28;20200;-44
2023/12/03 07:03:41;;;;;;;3.15;2.25;;;3.80;90.50;;;;;;4965683;28;20640;-45
2023/12/03 07:06:10;;;;;;;3.33;2.25;;;3.90;90.50;;;;;;4966455;28;20254;-48
2023/12/03 07:08:38;;;;;;;3.15;2.22;;;3.90;90.60;;;;;;4968279;28;20261;-46
2023/12/03 07:11:07;;;;;;;2.97;1.98;;;3.90;90.50;;;;;;4962077;28;20610;-45
2023/12/03 07:13:35;;;;;;;2.83;1.98;;;3.90;90.60;;;;;;4961712;28;20223;-45
2023/12/03 07:16:03;;;;;;;3.10;2.20;;;3.80;90.50;;;;;;4970528;28;20214;-46
2023/12/03 07:18:32;;;;;;;3.20;2.08;;;3.90;90.50;;;;;;4968476;28;20222;-44
2023/12/03 07:21:01;;;;;;;2.83;2.20;;;3.90;91.00;;;;;;4969177;28;20208;-43
2023/12/03 07:23:29;;;;;;;2.72;2.08;;;3.90;90.50;;;;;;4970657;28;20239;-43
2023/12/03 07:25:57;;;;;;;3.88;2.30;;;3.80;90.50;;;;;;4967489;28;20195;-44
2023/12/03 07:28:25;;;;;;;4.20;2.92;;;3.90;90.50;;;;;;4969086;28;20212;-46
2023/12/03 07:30:53;;;;;;;4.63;2.72;;;3.80;90.40;;;;;;4970739;28;20200;-45
2023/12/03 07:33:21;;;;;;;2.90;2.38;;;3.80;90.40;;;;;;4970640;28;20223;-44
2023/12/03 07:35:50;;;;;;;7.10;3.90;;;3.80;90.40;;;;;;4966627;28;20203;-43
2023/12/03 07:38:18;;;;;;;4.95;3.00;;;3.80;90.90;;;;;;4968368;28;20238;-47
2023/12/03 07:40:46;;;;;;;6.30;3.20;;;3.80;90.50;;;;;;4966808;28;20712;-43
2023/12/03 07:43:15;;;;;;;2.95;2.40;;;3.80;90.50;;;;;;4968940;28;20561;-47
2023/12/03 07:45:43;;;;;;;6.63;3.17;;;3.80;90.40;;;;;;4971544;28;20195;-48
2023/12/03 07:48:11;;;;;;;5.00;3.00;;;3.80;90.40;;;;;;4969555;28;20231;-43
2023/12/03 07:50:39;;;;;;;5.57;3.03;;;3.80;90.50;;;;;;4967526;28;20250;-45
2023/12/03 07:53:10;;;;;;;5.45;3.28;;;3.80;90.40;;;;;;4968701;28;20696;-43
2023/12/03 07:55:38;;;;;;;3.97;2.80;;;3.80;90.40;;;;;;4966449;28;20195;-44
2023/12/03 07:58:06;;;;;;;3.05;2.33;;;3.80;90.50;;;;;;4966081;28;20225;-43
2023/12/03 08:00:34;;;;;;;4.75;2.50;;;3.80;90.50;;;;;;4960526;28;20202;-43
2023/12/03 08:03:03;;;;;;;3.42;2.10;;;3.80;90.60;;;;;;4967174;28;20187;-47
2023/12/03 08:05:31;;;;;;;3.67;2.67;;;3.80;90.50;;;;;;4968503;28;20199;-44
2023/12/03 08:07:59;;;;;;;4.47;3.03;;;3.80;90.50;;;;;;4964318;28;20239;-47
2023/12/03 08:10:29;;;;;;;4.40;2.70;;;3.80;90.40;;;;;;4968662;28;20641;-48
2023/12/03 08:12:57;;;;;;;4.93;3.13;;;3.80;90.50;;;;;;4967849;28;20203;-45
2023/12/03 08:15:25;;;;;;;7.25;4.10;;;3.80;90.50;;;;;;4965538;28;20290;-44
2023/12/03 08:17:53;;;;;;;4.28;3.17;;;3.80;90.80;;;;;;4968454;28;20961;-44
2023/12/03 08:20:21;;;;;;;4.35;2.95;;;3.80;90.40;;;;;;4984750;28;20191;-44
2023/12/03 08:22:49;;;;;;;7.03;2.88;;;3.80;90.40;;;;;;4970526;28;20227;-43
2023/12/03 08:25:17;;;;;;;4.65;3.92;;;3.80;90.40;;;;;;4963696;28;20571;-44
2023/12/03 08:27:46;;;;;;;5.18;3.28;;;3.70;90.20;;;;;;4967269;28;20294;-44
2023/12/03 08:30:16;;;;;;;5.75;3.50;;;3.70;90.40;;;;;;4969022;28;20215;-44
2023/12/03 08:32:44;;;;;;;5.55;4.00;;;3.70;90.40;;;;;;4969763;28;20213;-44
2023/12/03 08:35:12;;;;;;;6.38;4.18;;;3.70;90.40;;;;;;4967898;28;20223;-43
2023/12/03 08:37:40;;;;;;;5.50;3.22;;;3.70;90.40;;;;;;4970047;28;20210;-44
2023/12/03 08:40:09;;;;;;;4.03;3.10;;;3.70;90.30;;;;;;4967994;28;20231;-46
2023/12/03 08:42:39;;;;;;;3.33;2.90;;;3.70;90.40;;;;;;4962381;28;20191;-43
2023/12/03 08:45:08;;;;;;;7.60;3.97;;;3.70;90.40;;;;;;4968920;28;20230;-44
2023/12/03 08:47:36;;;;;;;6.60;4.25;;;3.70;90.40;;;;;;4963264;28;20237;-44
2023/12/03 08:50:06;;;;;;;8.20;4.85;;;3.70;90.30;;;;;;4961565;28;20549;-44
2023/12/03 08:52:35;;;;;;;6.63;4.55;;;3.70;90.30;;;;;;4962311;28;20176;-44
2023/12/03 08:55:04;;;;;;;5.30;3.22;;;3.70;90.40;;;;;;4970195;28;20219;-44
2023/12/03 08:57:32;;;;;;;5.47;3.50;;;3.70;90.40;;;;;;4963121;28;20297;-43
2023/12/03 09:00:00;;;;;;;6.00;3.67;;;3.70;90.30;;;;;;4969840;28;20301;-44
2023/12/03 09:02:29;;;;;;;5.57;3.85;;;3.70;90.10;;;;;;4969492;28;20203;-46
2023/12/03 09:04:57;;;;;;;8.32;4.65;;;3.70;90.10;;;;;;4967781;28;20727;-44
2023/12/03 09:07:27;;;;;;;6.22;4.03;;;3.70;89.90;;;;;;4968033;28;21666;-43
2023/12/03 09:09:55;;;;;;;6.75;3.80;;;3.70;90.00;;;;;;4968793;28;20227;-43
2023/12/03 09:12:23;;;;;;;8.10;6.05;;;3.80;90.00;;;;;;4963327;28;20200;-45
2023/12/03 09:14:51;;;;;;;8.30;5.60;;;3.80;89.60;;;;;;4969007;28;20571;-44
2023/12/03 09:17:19;;;;;;;8.07;4.70;;;3.80;89.40;;;;;;4969541;28;20203;-45
2023/12/03 09:19:49;;;;;;;8.95;4.88;;;3.80;89.70;;;;;;4969680;28;20752;-44
2023/12/03 09:22:17;;;;;;;5.20;4.13;;;3.80;89.70;;;;;;4966167;28;20202;-44
2023/12/03 09:24:45;;;;;;;7.07;5.03;;;3.80;89.40;;;;;;4967783;28;20644;-43
2023/12/03 09:27:13;;;;;;;6.90;5.00;;;3.80;90.10;;;;;;4962224;28;20253;-46
2023/12/03 09:29:41;;;;;;;6.90;5.32;;;3.80;89.30;;;;;;4967718;28;20243;-44
2023/12/03 09:32:09;;;;;;;5.00;3.92;;;3.80;88.90;;;;;;4966452;28;20265;-48
2023/12/03 09:34:37;;;;;;;10.32;5.65;;;3.80;89.10;;;;;;4967207;28;20636;-44
2023/12/03 09:37:06;;;;;;;10.05;4.97;;;3.80;89.20;;;;;;4961360;28;20199;-45
2023/12/03 09:39:34;;;;;;;8.40;4.88;;;3.80;89.00;;;;;;4967738;28;20307;-45
2023/12/03 09:42:04;;;;;;;7.05;4.15;;;3.80;88.90;;;;;;4962861;28;20689;-46
2023/12/03 09:44:39;;;;;;;6.15;4.20;;;3.80;89.00;;;;;;4969548;28;20219;-43
2023/12/03 09:47:08;;;;;;;6.85;4.35;;;3.90;89.30;;;;;;4969173;28;20261;-44
2023/12/03 09:49:40;;;;;;;5.93;4.45;;;3.90;89.20;;;;;;4963127;28;20643;-44
2023/12/03 09:52:10;;;;;;;6.53;4.07;;;3.90;89.30;;;;;;4966640;28;20203;-44
2023/12/03 09:54:39;;;;;;;8.35;4.80;;;3.90;89.00;;;;;;4968849;28;20780;-43
2023/12/03 09:57:09;;;;;;;7.30;3.50;;;3.90;89.10;;;;;;4962582;28;20223;-44
2023/12/03 09:59:41;;;;;;;6.25;4.43;;;3.80;89.30;;;;;;4962471;28;20227;-46
2023/12/03 10:02:13;;;;;;;4.78;3.92;;;3.80;88.90;;;;;;4968588;28;20223;-43
2023/12/03 10:04:41;;;;;;;8.80;4.82;;;3.80;88.90;;;;;;4971382;28;20304;-44
2023/12/03 10:07:12;;;;;;;8.68;5.30;;;3.80;89.00;;;;;;4970376;28;20279;-45
2023/12/03 10:09:43;;;;;;;7.40;4.68;;;3.80;89.00;;;;;;4972797;28;20234;-45
2023/12/03 10:12:16;;;;;;;6.70;4.05;;;3.80;88.90;;;;;;4968564;28;20206;-43
2023/12/03 10:14:45;;;;;;;8.85;4.75;;;3.80;89.00;;;;;;4972674;28;20275;-43
2023/12/03 10:17:19;;;;;;;5.22;3.58;;;3.80;89.20;;;;;;4972700;28;20613;-47
2023/12/03 10:19:47;;;;;;;5.90;4.45;;;3.80;89.10;;;;;;4964995;28;20227;-43
2023/12/03 10:22:17;;;;;;;6.65;4.30;;;3.80;89.00;;;;;;4972090;28;20203;-46
2023/12/03 10:24:48;;;;;;;5.75;4.40;;;3.80;88.90;;;;;;4970637;28;20274;-43
2023/12/03 10:27:17;;;;;;;6.07;4.57;;;3.80;89.10;;;;;;4966011;28;20199;-44
2023/12/03 10:29:49;;;;;;;7.45;5.05;;;3.80;89.30;;;;;;4972069;28;20219;-43
2023/12/03 10:32:19;;;;;;;8.13;4.75;;;3.70;89.20;;;;;;4971867;28;20250;-45
2023/12/03 10:34:50;;;;;;;6.00;4.10;;;3.70;88.90;;;;;;4970746;28;20302;-44
2023/12/03 10:37:19;;;;;;;6.25;3.78;;;3.70;89.30;;;;;;4972982;28;20719;-44
2023/12/03 10:39:47;;;;;;;5.78;4.32;;;3.70;89.00;;;;;;4972553;28;20223;-44
2023/12/03 10:42:16;;;;;;;5.20;3.65;;;3.70;89.00;;;;;;4970347;28;20590;-46
2023/12/03 10:44:44;;;;;;;4.80;3.72;;;3.70;89.40;;;;;;4972387;28;20716;-43
2023/12/03 10:47:13;;;;;;;5.65;4.22;;;3.70;89.40;;;;;;4972383;28;20188;-44
2023/12/03 10:49:42;;;;;;;5.10;3.17;;;3.70;89.50;;;;;;4962767;28;20238;-43
2023/12/03 10:52:10;;;;;;;5.40;3.88;;;3.70;89.50;;;;;;4971685;28;20203;-44
2023/12/03 10:54:40;;;;;;;9.65;5.72;;;3.70;89.60;;;;;;4970577;28;20251;-44
2023/12/03 10:57:09;;;;;;;8.10;4.95;;;3.70;89.30;;;;;;4966213;28;20200;-49
2023/12/03 10:59:41;;;;;;;8.07;4.78;;;3.70;89.40;;;;;;4964780;28;20314;-44
2023/12/03 11:02:11;;;;;;;6.10;4.40;;;3.70;88.90;;;;;;4972024;28;20192;-44
2023/12/03 11:04:45;;;;;;;5.10;3.50;;;3.70;89.40;;;;;;4963257;28;20222;-43
2023/12/03 11:07:18;;;;;;;6.47;4.38;;;3.70;89.50;;;;;;4972000;28;20199;-44
2023/12/03 11:09:49;;;;;;;5.50;3.88;;;3.70;89.40;;;;;;4972010;28;20239;-43
2023/12/03 11:12:20;;;;;;;5.10;3.60;;;3.70;89.40;;;;;;4966349;28;20661;-45
2023/12/03 11:14:49;;;;;;;6.10;4.15;;;3.70;89.70;;;;;;4970441;28;20246;-45
2023/12/03 11:17:22;;;;;;;6.32;3.85;;;3.70;89.80;;;;;;4986162;28;20199;-42
2023/12/03 11:19:56;;;;;;;5.60;3.80;;;3.70;89.30;;;;;;4972139;28;20215;-45
2023/12/03 11:22:36;;;;;;;4.82;3.50;;;3.70;89.30;;;;;;4967735;28;20242;-43
2023/12/03 11:25:11;;;;;;;5.53;3.83;;;3.70;89.60;;;;;;4970861;28;20221;-44
2023/12/03 11:27:41;;;;;;;8.50;4.15;;;3.70;89.40;;;;;;4968960;28;20305;-45
2023/12/03 11:30:11;;;;;;;5.82;3.20;;;3.70;89.20;;;;;;4971099;28;20302;-45
2023/12/03 11:32:39;;;;;;;4.13;3.67;;;3.70;89.60;;;;;;4972057;28;20211;-45
2023/12/03 11:35:17;;;;;;;5.68;4.00;;;3.70;90.00;;;;;;4969886;28;20240;-43
2023/12/03 11:37:47;;;;;;;5.00;3.33;;;3.70;89.20;;;;;;4972040;28;20219;-44
2023/12/03 11:40:20;;;;;;;7.07;3.97;;;3.70;89.50;;;;;;4968440;28;20218;-45
2023/12/03 11:42:49;;;;;;;6.00;4.43;;;3.70;89.30;;;;;;4980550;28;20298;-45
2023/12/03 11:45:22;;;;;;;7.32;4.30;;;3.70;89.20;;;;;;4968968;28;20285;-45
2023/12/03 11:48:07;;;;;;;7.80;3.92;;;3.70;89.30;;;;;;4969002;28;20223;-47
2023/12/03 11:50:38;;;;;;;5.57;3.47;;;3.70;89.30;;;;;;4966855;28;20235;-46
2023/12/03 11:53:08;;;;;;;6.72;4.13;;;3.70;89.50;;;;;;4967149;28;20202;-44
2023/12/03 11:55:39;;;;;;;6.72;3.97;;;3.70;89.40;;;;;;4961957;28;20299;-43
2023/12/03 11:58:07;;;;;;;8.45;4.65;;;3.70;89.70;;;;;;4970292;28;20230;-44
2023/12/03 12:00:36;;;;;;;5.05;3.38;;;3.70;90.10;;;;;;4967666;28;20199;-44
2023/12/03 12:03:08;;;;;;;6.97;4.47;;;3.70;89.60;;;;;;4984401;28;20191;-44
2023/12/03 12:05:45;;;;;;;5.35;4.10;;;3.70;89.70;;;;;;4974317;28;20285;-47
2023/12/03 12:08:19;;;;;;;10.60;3.83;;;3.70;89.80;;;;;;4969835;28;20273;-46
2023/12/03 12:10:54;;;;;;;5.85;3.58;;;3.70;89.30;;;;;;4967838;28;20289;-44
2023/12/03 12:13:23;;;;;;;4.90;3.35;;;3.70;89.50;;;;;;4967464;28;20305;-43
2023/12/03 12:15:51;;;;;;;5.40;3.78;;;3.70;89.30;;;;;;4967061;28;20707;-46
2023/12/03 12:18:22;;;;;;;5.57;4.03;;;3.70;89.30;;;;;;4965799;28;20239;-46
2023/12/03 12:20:51;;;;;;;7.03;3.83;;;3.70;89.40;;;;;;4966179;28;20254;-43
2023/12/03 12:23:19;;;;;;;5.68;3.92;;;3.70;89.70;;;;;;4969211;28;20262;-46
2023/12/03 12:25:53;;;;;;;8.65;2.92;;;3.70;89.40;;;;;;4966213;28;20202;-45
2023/12/03 12:28:21;;;;;;;5.40;3.78;;;3.70;89.80;;;;;;4963848;28;20793;-45
2023/12/03 12:30:49;;;;;;;5.78;4.40;;;3.70;89.60;;;;;;4967361;28;20196;-44
2023/12/03 12:33:17;;;;;;;4.32;3.35;;;3.70;89.70;;;;;;4964935;28;20231;-44
2023/12/03 12:35:49;;;;;;;4.85;3.80;;;3.70;89.70;;;;;;4957694;28;20219;-47
2023/12/03 12:38:17;;;;;;;5.70;3.20;;;3.70;89.90;;;;;;4960706;28;20228;-46
2023/12/03 12:40:54;;;;;;;5.30;3.50;;;3.70;89.90;;;;;;4963241;28;20274;-50
2023/12/03 12:43:21;;;;;;;4.80;3.22;;;3.70;90.00;;;;;;4968218;28;20226;-47
2023/12/03 12:45:51;;;;;;;4.65;3.10;;;3.70;89.80;;;;;;4970618;28;20206;-46
2023/12/03 12:48:24;;;;;;;4.35;3.20;;;3.70;90.00;;;;;;4969743;28;20254;-45
2023/12/03 12:50:54;;;;;;;3.75;3.05;;;3.70;90.00;;;;;;4965981;28;20201;-44
2023/12/03 12:53:22;;;;;;;5.85;3.75;;;3.70;89.70;;;;;;4966372;28;20689;-46
2023/12/03 12:55:51;;;;;;;6.72;3.92;;;3.70;89.60;;;;;;4965065;28;20597;-46
2023/12/03 12:58:20;;;;;;;7.53;3.42;;;3.70;89.50;;;;;;4968323;28;20239;-47
2023/12/03 13:00:48;;;;;;;4.88;3.33;;;3.70;89.70;;;;;;4951228;28;20697;-47
2023/12/03 13:03:16;;;;;;;5.00;3.10;;;3.70;90.00;;;;;;4959640;28;20211;-45
2023/12/03 13:05:44;;;;;;;6.22;3.83;;;3.70;90.20;;;;;;4955832;28;20282;-45
2023/12/03 13:08:12;;;;;;;5.70;3.63;;;3.70;89.90;;;;;;4969600;28;20256;-45